TUI3WL EDDF-LEPA
Flight info
| Callsign | TUI3WL |
|---|---|
| Flight time | N/A |
| Altitude | 37000 |
| Route | ANEKI2L/18 ANEKI Y163 HERBI Y164 MOPAN DCT LUTIX DCT BENOT DCT NEMOS DCT GEVEA DCT INCUS DCT BALSI DCT RETNO DCT TUPOX DCT MTG DCT DIVKO DCT VATIR DCT PIVUS N852 VERSO L129 LUNIK LUNI4M |
| Aircraft | B738/M-V/N |
Departure
| Time | 2026-05-07 17:25 |
|---|---|
| Airport | Frankfurt Main Airport (EDDF) |
Arrival
| Time | N/A |
|---|---|
| Airport | Palma de Mallorca Airport (LEPA) |
| Time | Latitude | Longitude | Altitude | Speed | Heading |
|---|---|---|---|---|---|
| 2026-05-07 16:39 | 50.04986 | 8.58450 | 396 ft | 0 kts | 317° |
| 2026-05-07 17:09 | 50.04969 | 8.58475 | 417 ft | 4 kts | 315° |
| 2026-05-07 17:09 | 50.04951 | 8.58506 | 415 ft | 4 kts | 303° |
| 2026-05-07 17:10 | 50.04942 | 8.58541 | 417 ft | 4 kts | 258° |
| 2026-05-07 17:10 | 50.04944 | 8.58549 | 418 ft | 1 kts | 249° |
| 2026-05-07 17:14 | 50.04943 | 8.58549 | 418 ft | 0 kts | 249° |
| 2026-05-07 17:14 | 50.04940 | 8.58535 | 417 ft | 4 kts | 249° |
| 2026-05-07 17:14 | 50.04914 | 8.58427 | 409 ft | 12 kts | 249° |
| 2026-05-07 17:15 | 50.04893 | 8.58338 | 408 ft | 13 kts | 249° |
| 2026-05-07 17:15 | 50.04861 | 8.58205 | 406 ft | 13 kts | 250° |
| 2026-05-07 17:15 | 50.04831 | 8.58075 | 413 ft | 13 kts | 250° |
| 2026-05-07 17:15 | 50.04797 | 8.57952 | 411 ft | 12 kts | 231° |
| 2026-05-07 17:16 | 50.04720 | 8.57903 | 410 ft | 12 kts | 214° |
| 2026-05-07 17:16 | 50.04682 | 8.57792 | 410 ft | 12 kts | 250° |
| 2026-05-07 17:16 | 50.04649 | 8.57653 | 405 ft | 17 kts | 249° |
| 2026-05-07 17:16 | 50.04602 | 8.57457 | 406 ft | 19 kts | 249° |
| 2026-05-07 17:17 | 50.04556 | 8.57266 | 411 ft | 19 kts | 249° |
| 2026-05-07 17:17 | 50.04511 | 8.57079 | 410 ft | 18 kts | 249° |
| 2026-05-07 17:17 | 50.04468 | 8.56897 | 408 ft | 18 kts | 250° |
| 2026-05-07 17:17 | 50.04427 | 8.56723 | 406 ft | 17 kts | 250° |
| 2026-05-07 17:18 | 50.04386 | 8.56555 | 403 ft | 16 kts | 249° |
| 2026-05-07 17:18 | 50.04347 | 8.56393 | 403 ft | 16 kts | 249° |
| 2026-05-07 17:18 | 50.04311 | 8.56237 | 405 ft | 15 kts | 249° |
| 2026-05-07 17:18 | 50.04273 | 8.56083 | 402 ft | 17 kts | 249° |
| 2026-05-07 17:19 | 50.04226 | 8.55884 | 404 ft | 21 kts | 249° |
| 2026-05-07 17:19 | 50.04176 | 8.55673 | 403 ft | 20 kts | 250° |
| 2026-05-07 17:19 | 50.04127 | 8.55469 | 400 ft | 20 kts | 249° |
| 2026-05-07 17:19 | 50.04079 | 8.55271 | 407 ft | 19 kts | 250° |
| 2026-05-07 17:20 | 50.04033 | 8.55079 | 406 ft | 19 kts | 250° |
| 2026-05-07 17:20 | 50.03989 | 8.54893 | 401 ft | 18 kts | 249° |
| 2026-05-07 17:20 | 50.03946 | 8.54714 | 402 ft | 17 kts | 249° |
| 2026-05-07 17:20 | 50.03904 | 8.54542 | 406 ft | 17 kts | 249° |
| 2026-05-07 17:21 | 50.03862 | 8.54377 | 404 ft | 16 kts | 241° |
| 2026-05-07 17:21 | 50.03804 | 8.54233 | 399 ft | 15 kts | 246° |
| 2026-05-07 17:21 | 50.03766 | 8.54080 | 403 ft | 15 kts | 250° |
| 2026-05-07 17:21 | 50.03731 | 8.53932 | 401 ft | 14 kts | 249° |
| 2026-05-07 17:22 | 50.03694 | 8.53778 | 401 ft | 17 kts | 249° |
| 2026-05-07 17:22 | 50.03647 | 8.53587 | 400 ft | 21 kts | 248° |
| 2026-05-07 17:22 | 50.03591 | 8.53363 | 402 ft | 22 kts | 249° |
| 2026-05-07 17:22 | 50.03538 | 8.53138 | 399 ft | 22 kts | 250° |
| 2026-05-07 17:23 | 50.03486 | 8.52921 | 401 ft | 21 kts | 249° |
| 2026-05-07 17:23 | 50.03429 | 8.52713 | 405 ft | 21 kts | 249° |
| 2026-05-07 17:23 | 50.03387 | 8.52593 | 403 ft | 9 kts | 191° |
| 2026-05-07 17:23 | 50.03348 | 8.52594 | 401 ft | 0 kts | 179° |
| 2026-05-07 17:24 | 50.03342 | 8.52594 | 399 ft | 4 kts | 179° |
| 2026-05-07 17:24 | 50.03127 | 8.52596 | 395 ft | 66 kts | 180° |
| 2026-05-07 17:24 | 50.02452 | 8.52602 | 400 ft | 128 kts | 180° |
| 2026-05-07 17:24 | 50.01375 | 8.52604 | 471 ft | 175 kts | 180° |
| 2026-05-07 17:25 | 50.00153 | 8.52629 | 1302 ft | 176 kts | 180° |
| 2026-05-07 17:25 | 49.98882 | 8.52717 | 1934 ft | 187 kts | 178° |
| 2026-05-07 17:25 | 49.97602 | 8.52872 | 2800 ft | 182 kts | 179° |
| 2026-05-07 17:25 | 49.96362 | 8.52959 | 3599 ft | 181 kts | 181° |
| 2026-05-07 17:26 | 49.95026 | 8.53035 | 4002 ft | 203 kts | 180° |
| 2026-05-07 17:26 | 49.93509 | 8.53123 | 4001 ft | 228 kts | 180° |
| 2026-05-07 17:26 | 49.91902 | 8.53225 | 3982 ft | 233 kts | 180° |
| 2026-05-07 17:26 | 49.90269 | 8.53333 | 4165 ft | 237 kts | 179° |
| 2026-05-07 17:27 | 49.88624 | 8.53444 | 5015 ft | 234 kts | 180° |
| 2026-05-07 17:27 | 49.87000 | 8.53553 | 5864 ft | 234 kts | 180° |
| 2026-05-07 17:27 | 49.85361 | 8.53663 | 6626 ft | 236 kts | 180° |
| 2026-05-07 17:27 | 49.83705 | 8.53775 | 7309 ft | 240 kts | 180° |
| 2026-05-07 17:28 | 49.82029 | 8.53887 | 8034 ft | 242 kts | 180° |
| 2026-05-07 17:28 | 49.80333 | 8.54001 | 8741 ft | 245 kts | 180° |
| 2026-05-07 17:28 | 49.78619 | 8.54117 | 9456 ft | 248 kts | 180° |
| 2026-05-07 17:28 | 49.76864 | 8.54101 | 9928 ft | 262 kts | 185° |
| 2026-05-07 17:29 | 49.74990 | 8.53648 | 10115 ft | 284 kts | 196° |
| 2026-05-07 17:29 | 49.73013 | 8.52764 | 10318 ft | 307 kts | 199° |
| 2026-05-07 17:29 | 49.70930 | 8.51726 | 10492 ft | 329 kts | 199° |
| 2026-05-07 17:29 | 49.68678 | 8.50588 | 10689 ft | 350 kts | 199° |
| 2026-05-07 17:30 | 49.66321 | 8.49412 | 11132 ft | 361 kts | 199° |
| 2026-05-07 17:30 | 49.63890 | 8.48219 | 11815 ft | 365 kts | 198° |
| 2026-05-07 17:30 | 49.61477 | 8.47052 | 12534 ft | 368 kts | 198° |
| 2026-05-07 17:30 | 49.59018 | 8.45875 | 13230 ft | 372 kts | 198° |
| 2026-05-07 17:31 | 49.56537 | 8.44697 | 13903 ft | 376 kts | 198° |
| 2026-05-07 17:31 | 49.54027 | 8.43510 | 14509 ft | 379 kts | 198° |
| 2026-05-07 17:31 | 49.51496 | 8.42318 | 15121 ft | 382 kts | 198° |
| 2026-05-07 17:31 | 49.48941 | 8.41117 | 15722 ft | 385 kts | 198° |
| 2026-05-07 17:32 | 49.46364 | 8.39907 | 16310 ft | 389 kts | 198° |
| 2026-05-07 17:32 | 49.43762 | 8.38688 | 16894 ft | 392 kts | 198° |
| 2026-05-07 17:32 | 49.41137 | 8.37459 | 17473 ft | 396 kts | 198° |
| 2026-05-07 17:32 | 49.38491 | 8.36222 | 18041 ft | 399 kts | 198° |
| 2026-05-07 17:33 | 49.35827 | 8.34978 | 18569 ft | 402 kts | 198° |
| 2026-05-07 17:33 | 49.33143 | 8.33726 | 19071 ft | 404 kts | 198° |
| 2026-05-07 17:33 | 49.30441 | 8.32467 | 19581 ft | 407 kts | 198° |
| 2026-05-07 17:33 | 49.27726 | 8.31203 | 20074 ft | 409 kts | 198° |
| 2026-05-07 17:34 | 49.25014 | 8.29942 | 20549 ft | 412 kts | 198° |
| 2026-05-07 17:34 | 49.22972 | 8.28994 | 20896 ft | 414 kts | 198° |
| 2026-05-07 17:34 | 49.20209 | 8.27712 | 21349 ft | 417 kts | 198° |
| 2026-05-07 17:35 | 49.17427 | 8.26422 | 21801 ft | 419 kts | 198° |
| 2026-05-07 17:35 | 49.14629 | 8.25127 | 22254 ft | 422 kts | 198° |
| 2026-05-07 17:35 | 49.11808 | 8.23823 | 22704 ft | 425 kts | 198° |
| 2026-05-07 17:35 | 49.08971 | 8.22512 | 23152 ft | 427 kts | 198° |
| 2026-05-07 17:36 | 49.06119 | 8.21197 | 23576 ft | 430 kts | 198° |
| 2026-05-07 17:36 | 49.03248 | 8.19874 | 23947 ft | 432 kts | 198° |
| 2026-05-07 17:36 | 49.00357 | 8.18544 | 24316 ft | 434 kts | 198° |
| 2026-05-07 17:36 | 48.97455 | 8.17210 | 24671 ft | 437 kts | 198° |
| 2026-05-07 17:37 | 48.94536 | 8.15870 | 25007 ft | 439 kts | 198° |
| 2026-05-07 17:37 | 48.91598 | 8.14523 | 25358 ft | 442 kts | 198° |
| 2026-05-07 17:37 | 48.88654 | 8.13175 | 25689 ft | 444 kts | 198° |
| 2026-05-07 17:37 | 48.85683 | 8.11816 | 26014 ft | 446 kts | 198° |
| 2026-05-07 17:38 | 48.82707 | 8.10457 | 26330 ft | 448 kts | 198° |
| 2026-05-07 17:38 | 48.79752 | 8.09109 | 26628 ft | 450 kts | 198° |
| 2026-05-07 17:38 | 48.76741 | 8.07737 | 26932 ft | 453 kts | 198° |
| 2026-05-07 17:38 | 48.73722 | 8.06363 | 27216 ft | 455 kts | 198° |
| 2026-05-07 17:39 | 48.70686 | 8.04983 | 27526 ft | 456 kts | 198° |
| 2026-05-07 17:39 | 48.67595 | 8.03580 | 27822 ft | 458 kts | 198° |
| 2026-05-07 17:39 | 48.64532 | 8.02191 | 28106 ft | 460 kts | 198° |
| 2026-05-07 17:39 | 48.61498 | 8.00817 | 28391 ft | 461 kts | 198° |
| 2026-05-07 17:40 | 48.58424 | 7.99428 | 28780 ft | 460 kts | 198° |
| 2026-05-07 17:40 | 48.55365 | 7.98047 | 29223 ft | 458 kts | 198° |
| 2026-05-07 17:40 | 48.52312 | 7.96671 | 29679 ft | 456 kts | 198° |
| 2026-05-07 17:40 | 48.49267 | 7.95299 | 30054 ft | 456 kts | 198° |
| 2026-05-07 17:41 | 48.46230 | 7.93933 | 30362 ft | 456 kts | 198° |
| 2026-05-07 17:41 | 48.43196 | 7.92569 | 30698 ft | 454 kts | 198° |
| 2026-05-07 17:41 | 48.40177 | 7.91214 | 31073 ft | 452 kts | 198° |
| 2026-05-07 17:41 | 48.37170 | 7.89867 | 31419 ft | 450 kts | 198° |
| 2026-05-07 17:42 | 48.34166 | 7.88522 | 31727 ft | 450 kts | 198° |
| 2026-05-07 17:42 | 48.31170 | 7.87182 | 32037 ft | 449 kts | 198° |
| 2026-05-07 17:42 | 48.28182 | 7.85848 | 32370 ft | 447 kts | 199° |
| 2026-05-07 17:42 | 48.25207 | 7.84521 | 32715 ft | 446 kts | 199° |
| 2026-05-07 17:43 | 48.22236 | 7.83197 | 33002 ft | 445 kts | 199° |
| 2026-05-07 17:43 | 48.19270 | 7.81877 | 33299 ft | 444 kts | 199° |
| 2026-05-07 17:43 | 48.16307 | 7.80560 | 33603 ft | 443 kts | 199° |
| 2026-05-07 17:43 | 48.13358 | 7.79251 | 33923 ft | 441 kts | 199° |
| 2026-05-07 17:44 | 48.10415 | 7.77946 | 34171 ft | 441 kts | 199° |
| 2026-05-07 17:44 | 48.07475 | 7.76644 | 34364 ft | 441 kts | 199° |
| 2026-05-07 17:44 | 48.04525 | 7.75339 | 34559 ft | 441 kts | 199° |
| 2026-05-07 17:44 | 48.01620 | 7.74055 | 34779 ft | 440 kts | 199° |
| 2026-05-07 17:45 | 47.98644 | 7.72742 | 34972 ft | 440 kts | 199° |
| 2026-05-07 17:45 | 47.95741 | 7.71462 | 35155 ft | 440 kts | 199° |
| 2026-05-07 17:45 | 47.92806 | 7.70171 | 35359 ft | 440 kts | 199° |
| 2026-05-07 17:45 | 47.89873 | 7.68881 | 35559 ft | 439 kts | 199° |
| 2026-05-07 17:46 | 47.86940 | 7.67593 | 35724 ft | 440 kts | 199° |
| 2026-05-07 17:46 | 47.84006 | 7.66305 | 35895 ft | 440 kts | 199° |
| 2026-05-07 17:46 | 47.81070 | 7.65019 | 36093 ft | 439 kts | 199° |
| 2026-05-07 17:46 | 47.78135 | 7.63734 | 36265 ft | 439 kts | 199° |
| 2026-05-07 17:47 | 47.75204 | 7.62453 | 36422 ft | 440 kts | 199° |
| 2026-05-07 17:47 | 47.72270 | 7.61172 | 36585 ft | 440 kts | 199° |
| 2026-05-07 17:47 | 47.69335 | 7.59892 | 36767 ft | 439 kts | 199° |
| 2026-05-07 17:47 | 47.66406 | 7.58616 | 36933 ft | 439 kts | 199° |
| 2026-05-07 17:48 | 47.60521 | 7.56056 | 37008 ft | 442 kts | 199° |
| 2026-05-07 17:48 | 47.54647 | 7.53509 | 37009 ft | 440 kts | 199° |
| 2026-05-07 17:49 | 47.53875 | 7.53175 | 37013 ft | 440 kts | 199° |